Time;durP1;ratioP1;P1;durP2;ratioP2;P2;SDS_P1;SDS_P2;PMS_P1;PMS_P2;Temp;Humidity;BMP_temperature;BMP_pressure;BME280_temperature;BME280_humidity;BME280_pressure;Samples;Min_cycle;Max_cycle;Signal;HPM_P1;HPM_P2
2023/12/02 00:01:01;;;;;;;14.13;10.30;;;;;;;-1.96;100.00;101079.31;5069265;28;20035;-35
2023/12/02 00:03:27;;;;;;;12.63;9.97;;;;;;;-1.88;100.00;101092.72;5069530;28;20028;-35
2023/12/02 00:05:53;;;;;;;16.83;11.67;;;;;;;-1.90;100.00;101076.13;5069181;28;20508;-35
2023/12/02 00:08:18;;;;;;;14.02;10.63;;;;;;;-1.84;100.00;101086.16;5059522;28;20107;-35
2023/12/02 00:10:45;;;;;;;16.10;11.40;;;;;;;-1.89;100.00;101100.81;5056349;28;20036;-35
2023/12/02 00:13:10;;;;;;;16.45;11.73;;;;;;;-2.09;100.00;101098.22;5055874;28;20028;-35
2023/12/02 00:15:36;;;;;;;15.87;11.43;;;;;;;-2.02;100.00;101098.47;5056143;28;20029;-35
2023/12/02 00:18:01;;;;;;;14.70;10.33;;;;;;;-2.03;100.00;101093.31;5055735;28;20037;-35
2023/12/02 00:20:26;;;;;;;15.07;11.13;;;;;;;-2.01;100.00;101086.03;5056139;28;20057;-35
2023/12/02 00:22:52;;;;;;;13.40;10.03;;;;;;;-1.95;100.00;101088.97;5055964;28;20029;-35
2023/12/02 00:25:17;;;;;;;14.67;11.23;;;;;;;-1.96;100.00;101089.09;5056719;28;20028;-35
2023/12/02 00:27:43;;;;;;;12.82;9.48;;;;;;;-1.86;100.00;101074.84;5056120;28;20036;-35
2023/12/02 00:30:08;;;;;;;15.83;11.17;;;;;;;-1.95;100.00;101074.84;5055888;28;20461;-35
2023/12/02 00:32:34;;;;;;;15.18;11.50;;;;;;;-1.83;100.00;101079.84;5056011;28;20378;-35
2023/12/02 00:34:59;;;;;;;15.47;11.40;;;;;;;-1.74;100.00;101082.63;5055748;28;20037;-35
2023/12/02 00:37:24;;;;;;;14.20;10.93;;;;;;;-1.79;100.00;101079.56;5056393;28;20033;-35
2023/12/02 00:39:50;;;;;;;13.93;10.77;;;;;;;-1.74;100.00;101087.94;5055606;28;20155;-35
2023/12/02 00:42:15;;;;;;;14.47;10.93;;;;;;;-1.85;100.00;101079.19;5055702;28;20028;-35
2023/12/02 00:44:40;;;;;;;13.63;10.23;;;;;;;-1.70;100.00;101086.66;5055646;28;20025;-35
2023/12/02 00:47:06;;;;;;;15.00;10.30;;;;;;;-1.77;100.00;101086.38;5056345;28;20040;-35
2023/12/02 00:49:31;;;;;;;14.60;11.10;;;;;;;-1.74;100.00;101087.94;5055141;28;20122;-35
2023/12/02 00:51:56;;;;;;;17.03;11.80;;;;;;;-1.78;100.00;101091.84;5055967;28;20029;-35
2023/12/02 00:54:22;;;;;;;15.03;10.80;;;;;;;-1.69;100.00;101080.38;5055401;28;20029;-35
2023/12/02 00:56:47;;;;;;;13.23;9.37;;;;;;;-1.65;100.00;101074.63;5055664;28;20045;-35
2023/12/02 00:59:12;;;;;;;13.70;10.53;;;;;;;-1.64;100.00;101070.16;5055382;28;20167;-35
2023/12/02 01:01:38;;;;;;;17.60;11.97;;;;;;;-1.70;100.00;101095.44;5055052;28;20083;-35
2023/12/02 01:04:03;;;;;;;14.80;10.40;;;;;;;-1.59;100.00;101091.78;5055561;28;20056;-35
2023/12/02 01:06:29;;;;;;;16.50;11.30;;;;;;;-1.70;100.00;101090.16;5055244;28;20039;-35
2023/12/02 01:08:54;;;;;;;14.13;10.67;;;;;;;-1.71;100.00;101079.66;5055119;28;20021;-35
2023/12/02 01:11:20;;;;;;;13.27;10.07;;;;;;;-1.58;100.00;101075.72;5055392;28;20021;-35
2023/12/02 01:13:45;;;;;;;14.03;10.67;;;;;;;-1.62;100.00;101076.97;5054695;28;20032;-35
2023/12/02 01:16:10;;;;;;;16.83;11.13;;;;;;;-1.59;100.00;101070.56;5054939;28;20020;-35
2023/12/02 01:18:36;;;;;;;15.03;11.87;;;;;;;-1.69;100.00;101080.38;5054609;28;20032;-35
2023/12/02 01:21:01;;;;;;;14.30;11.37;;;;;;;-1.74;100.00;101077.31;5054132;28;20552;-35
2023/12/02 01:23:26;;;;;;;14.10;10.80;;;;;;;-1.78;100.00;101081.25;5054785;28;20028;-35
2023/12/02 01:25:52;;;;;;;14.43;10.90;;;;;;;-1.85;100.00;101076.53;5055646;28;20049;-35
2023/12/02 01:28:17;;;;;;;15.67;11.87;;;;;;;-1.95;100.00;101066.91;5054776;28;20032;-35
2023/12/02 01:30:43;;;;;;;14.13;10.93;;;;;;;-1.89;100.00;101088.41;5054698;28;20103;-35
2023/12/02 01:33:08;;;;;;;13.80;10.30;;;;;;;-1.92;100.00;101088.66;5054932;28;20271;-35
2023/12/02 01:35:33;;;;;;;13.50;10.43;;;;;;;-2.05;100.00;101079.34;5054821;28;20025;-35
2023/12/02 01:37:59;;;;;;;13.40;11.00;;;;;;;-2.04;100.00;101092.47;5054524;28;20461;-35
2023/12/02 01:40:24;;;;;;;14.70;10.90;;;;;;;-2.01;100.00;101100.13;5054847;28;20057;-35
2023/12/02 01:42:49;;;;;;;14.67;10.83;;;;;;;-1.99;100.00;101108.78;5054474;28;20035;-35
2023/12/02 01:45:15;;;;;;;14.50;11.03;;;;;;;-1.92;100.00;101104.56;5054242;28;20021;-35
2023/12/02 01:47:42;;;;;;;14.33;11.03;;;;;;;-1.97;100.00;101103.34;5054163;28;20036;-35
2023/12/02 01:50:08;;;;;;;15.43;11.23;;;;;;;-2.02;100.00;101105.56;5054844;28;20025;-35
2023/12/02 01:52:33;;;;;;;15.35;11.45;;;;;;;-2.02;100.00;101110.88;5054809;28;20067;-35
2023/12/02 01:54:59;;;;;;;14.33;10.50;;;;;;;-1.99;100.00;101100.84;5054172;28;20048;-35
2023/12/02 01:57:24;;;;;;;14.13;10.98;;;;;;;-1.99;100.00;101118.56;5054423;28;20082;-35
2023/12/02 01:59:54;;;;;;;12.57;9.60;;;;;;;-1.97;100.00;101119.25;5054083;28;20041;-35
2023/12/02 02:02:20;;;;;;;14.60;10.45;;;;;;;-1.95;100.00;101118.13;5054334;28;20024;-35
2023/12/02 02:04:46;;;;;;;12.80;10.35;;;;;;;-1.91;100.00;101119.50;5054436;28;20044;-35
2023/12/02 02:07:12;;;;;;;14.53;10.93;;;;;;;-1.96;100.00;101128.84;5054519;28;20033;-35
2023/12/02 02:09:47;;;;;;;12.80;10.35;;;;;;;-2.05;100.00;101116.44;5053911;28;20382;-35
2023/12/02 02:12:13;;;;;;;14.75;11.38;;;;;;;-2.11;100.00;101116.03;5053862;28;20032;-35
2023/12/02 02:14:38;;;;;;;15.63;11.57;;;;;;;-2.10;100.00;101115.09;5053810;28;20037;-39
2023/12/02 02:17:04;;;;;;;14.30;11.23;;;;;;;-2.13;100.00;101115.38;5054346;28;20029;-35
2023/12/02 02:19:31;;;;;;;12.63;9.77;;;;;;;-1.97;100.00;101111.28;5054030;28;20110;-35
2023/12/02 02:21:56;;;;;;;14.65;11.02;;;;;;;-2.00;100.00;101112.44;5053715;28;20055;-35
2023/12/02 02:24:22;;;;;;;14.03;10.97;;;;;;;-1.99;100.00;101102.66;5053422;28;20053;-35
2023/12/02 02:26:47;;;;;;;15.93;11.10;;;;;;;-1.98;100.00;101110.44;5054216;28;20059;-35
2023/12/02 02:29:12;;;;;;;12.73;10.17;;;;;;;-2.13;100.00;101082.75;5053557;28;20063;-35
2023/12/02 02:31:38;;;;;;;16.43;12.50;;;;;;;-2.04;100.00;101108.38;5053877;28;20029;-35
2023/12/02 02:34:03;;;;;;;14.77;10.73;;;;;;;-2.18;100.00;101109.66;5053318;28;20040;-35
2023/12/02 02:36:28;;;;;;;17.92;13.25;;;;;;;-2.39;100.00;101101.88;5054032;28;20032;-35
2023/12/02 02:38:54;;;;;;;14.37;11.57;;;;;;;-2.38;100.00;101103.53;5053145;28;20053;-35
2023/12/02 02:41:19;;;;;;;14.83;11.53;;;;;;;-2.29;100.00;101114.25;5053422;28;20037;-35
2023/12/02 02:43:45;;;;;;;12.63;10.17;;;;;;;-2.11;100.00;101115.22;5053410;28;20043;-35
2023/12/02 02:46:13;;;;;;;14.02;11.10;;;;;;;-2.11;100.00;101110.75;5053126;28;20473;-35
2023/12/02 02:48:38;;;;;;;16.95;12.40;;;;;;;-2.03;100.00;101104.75;5053289;28;20048;-35
2023/12/02 02:51:03;;;;;;;15.10;12.17;;;;;;;-2.07;100.00;101124.56;5053895;28;20033;-35
2023/12/02 02:53:29;;;;;;;15.13;12.13;;;;;;;-2.05;100.00;101122.59;5053328;28;20032;-35
2023/12/02 02:55:54;;;;;;;15.33;11.33;;;;;;;-2.06;100.00;101131.53;5053647;28;20108;-35
2023/12/02 02:58:19;;;;;;;15.57;11.50;;;;;;;-1.97;100.00;101119.25;5053026;28;20056;-35
2023/12/02 03:00:45;;;;;;;15.60;12.33;;;;;;;-2.09;100.00;101132.66;5053291;28;20040;-35
2023/12/02 03:03:10;;;;;;;13.83;11.23;;;;;;;-1.97;100.00;101133.31;5053015;28;20037;-35
2023/12/02 03:05:35;;;;;;;16.00;12.17;;;;;;;-1.91;100.00;101135.41;5053259;28;20048;-35
2023/12/02 03:08:01;;;;;;;14.33;10.87;;;;;;;-1.78;100.00;101135.09;5053497;28;20033;-35
2023/12/02 03:10:26;;;;;;;17.33;13.07;;;;;;;-1.93;100.00;101142.66;5053743;28;20028;-35
2023/12/02 03:12:51;;;;;;;17.87;12.60;;;;;;;-1.96;100.00;101147.41;5053737;28;20025;-35
2023/12/02 03:15:17;;;;;;;15.57;12.33;;;;;;;-1.89;100.00;101138.75;5053425;28;20025;-35
2023/12/02 03:17:42;;;;;;;14.95;11.93;;;;;;;-1.94;100.00;101129.56;5053073;28;20049;-35
2023/12/02 03:20:08;;;;;;;17.67;13.30;;;;;;;-1.97;100.00;101132.50;5053427;28;20128;-35
2023/12/02 03:22:34;;;;;;;14.98;10.98;;;;;;;-1.85;100.00;101123.41;5052960;28;20021;-35
2023/12/02 03:25:00;;;;;;;16.40;12.63;;;;;;;-1.82;100.00;101128.41;5053033;28;20033;-35
2023/12/02 03:27:25;;;;;;;14.50;11.18;;;;;;;-1.71;100.00;101125.56;5053276;28;20037;-35
2023/12/02 03:29:51;;;;;;;16.42;12.88;;;;;;;-1.74;100.00;101131.19;5052889;28;20027;-35
2023/12/02 03:32:16;;;;;;;15.57;12.77;;;;;;;-1.68;100.00;101129.78;5053239;28;20028;-35
2023/12/02 03:34:42;;;;;;;15.87;12.70;;;;;;;-1.71;100.00;101135.34;5053686;28;20432;-35
2023/12/02 03:37:07;;;;;;;15.57;12.50;;;;;;;-1.74;100.00;101114.44;5053132;28;20043;-35
2023/12/02 03:39:33;;;;;;;16.93;12.53;;;;;;;-1.75;100.00;101108.31;5052915;28;20476;-35
2023/12/02 03:41:58;;;;;;;15.83;12.30;;;;;;;-1.73;100.00;101119.59;5053193;28;20040;-35
2023/12/02 03:44:24;;;;;;;15.43;12.37;;;;;;;-1.82;100.00;101155.75;5056493;28;20119;-35
2023/12/02 03:46:49;;;;;;;15.57;12.05;;;;;;;-1.84;100.00;101148.94;5056329;28;20024;-35
2023/12/02 03:49:14;;;;;;;15.97;12.47;;;;;;;-1.84;100.00;101136.50;5056606;28;20024;-35
2023/12/02 03:51:40;;;;;;;16.17;12.50;;;;;;;-1.92;100.00;101138.19;5057111;28;20393;-35
2023/12/02 03:54:05;;;;;;;16.90;12.17;;;;;;;-1.95;100.00;101157.03;5056753;28;20361;-35
2023/12/02 03:56:31;;;;;;;16.40;12.48;;;;;;;-2.00;100.00;101132.75;5056232;28;20439;-35
2023/12/02 03:58:56;;;;;;;16.57;12.53;;;;;;;-1.92;100.00;101159.41;5056175;28;20021;-35
2023/12/02 04:01:22;;;;;;;13.77;10.83;;;;;;;-1.89;100.00;101144.06;5056444;28;20108;-35
2023/12/02 04:03:48;;;;;;;16.67;12.80;;;;;;;-1.91;100.00;101151.28;5056053;28;20029;-35
2023/12/02 04:06:13;;;;;;;17.83;14.00;;;;;;;-2.02;100.00;101153.28;5055042;28;20033;-35
2023/12/02 04:08:39;;;;;;;16.63;12.63;;;;;;;-2.09;100.00;101145.91;5056213;28;20116;-35
2023/12/02 04:11:05;;;;;;;;;;;;;;;-1.99;100.00;101145.06;5056904;28;20141;-35
2023/12/02 04:13:30;;;;;;;16.08;12.15;;;;;;;-2.08;100.00;101173.25;5055886;28;20364;-35
2023/12/02 04:15:56;;;;;;;18.40;12.90;;;;;;;-1.97;100.00;101159.81;5056312;28;20355;-35
2023/12/02 04:18:21;;;;;;;14.37;11.43;;;;;;;-1.86;100.00;101161.47;5055824;28;20381;-35
2023/12/02 04:20:47;;;;;;;14.90;11.13;;;;;;;-1.86;100.00;101180.03;5055607;28;20083;-35
2023/12/02 04:23:13;;;;;;;15.15;11.95;;;;;;;-1.89;100.00;101170.56;5055667;28;20271;-35
2023/12/02 04:25:39;;;;;;;14.77;12.27;;;;;;;-1.85;100.00;101177.25;5055869;28;20043;-35
2023/12/02 04:28:04;;;;;;;14.75;11.50;;;;;;;-1.77;100.00;101167.75;5055791;28;20458;-35
2023/12/02 04:30:29;;;;;;;16.03;12.23;;;;;;;-1.75;100.00;101163.16;5056064;28;20083;-35
2023/12/02 04:32:55;;;;;;;16.37;12.50;;;;;;;-1.68;100.00;101178.31;5055540;28;20519;-35
2023/12/02 04:35:20;;;;;;;15.90;12.57;;;;;;;-1.74;100.00;101165.66;5055454;28;20032;-35
2023/12/02 04:37:45;;;;;;;15.43;11.53;;;;;;;-1.67;100.00;101182.66;5055445;28;20112;-35
2023/12/02 04:40:11;;;;;;;13.07;10.57;;;;;;;-1.68;100.00;101173.03;5055956;28;20098;-35
2023/12/02 04:42:40;;;;;;;14.50;11.63;;;;;;;-1.72;100.00;101165.50;5055857;28;20031;-35
2023/12/02 04:45:07;;;;;;;13.57;11.23;;;;;;;-1.83;100.00;101143.47;5056275;28;20412;-35
2023/12/02 04:47:34;;;;;;;14.50;11.07;;;;;;;-1.64;100.00;101168.28;5055498;28;20044;-35
2023/12/02 04:49:59;;;;;;;17.52;12.32;;;;;;;-1.71;100.00;101164.50;5055628;28;20031;-35
2023/12/02 04:52:24;;;;;;;15.90;12.57;;;;;;;-1.62;100.00;101182.22;5055768;28;20029;-35
2023/12/02 04:54:50;;;;;;;15.80;12.40;;;;;;;-1.70;100.00;101176.81;5055279;28;20112;-35
2023/12/02 04:57:15;;;;;;;15.97;11.83;;;;;;;-1.65;100.00;101182.53;5055704;28;20056;-35
2023/12/02 04:59:40;;;;;;;15.10;11.53;;;;;;;-1.67;100.00;101185.28;5055274;28;20037;-35
2023/12/02 05:02:06;;;;;;;16.77;12.63;;;;;;;-1.75;100.00;101195.81;5055903;28;20032;-35
2023/12/02 05:04:31;;;;;;;14.32;11.93;;;;;;;-1.76;100.00;101190.63;5055165;28;20021;-35
2023/12/02 05:06:57;;;;;;;14.00;11.27;;;;;;;-1.83;100.00;101193.84;5055153;28;20041;-35
2023/12/02 05:09:22;;;;;;;13.93;11.33;;;;;;;-1.76;100.00;101199.41;5055562;28;20033;-35
2023/12/02 05:11:47;;;;;;;13.07;10.83;;;;;;;-1.75;100.00;101193.16;5055109;28;20078;-35
2023/12/02 05:14:13;;;;;;;12.43;10.33;;;;;;;-1.76;100.00;101199.41;5054985;28;20021;-35
2023/12/02 05:16:44;;;;;;;15.20;10.97;;;;;;;-1.87;100.00;101197.75;5055460;28;20029;-35
2023/12/02 05:19:10;;;;;;;12.25;9.82;;;;;;;-1.72;100.00;101202.63;5054813;28;20029;-35
2023/12/02 05:21:37;;;;;;;14.10;10.60;;;;;;;-1.80;100.00;101199.88;5054628;28;20047;-35
2023/12/02 05:24:02;;;;;;;12.32;10.10;;;;;;;-1.79;100.00;101185.63;5055009;28;20029;-35
2023/12/02 05:26:28;;;;;;;12.82;10.43;;;;;;;-1.83;100.00;101190.38;5055091;28;20374;-35
2023/12/02 05:28:53;;;;;;;12.20;9.73;;;;;;;-1.66;100.00;101205.56;5054457;28;20029;-35
2023/12/02 05:31:19;;;;;;;12.63;9.53;;;;;;;-1.59;100.00;101196.03;5055248;28;20025;-35
2023/12/02 05:33:45;;;;;;;12.95;10.40;;;;;;;-1.77;100.00;101188.97;5055108;28;20294;-35
2023/12/02 05:36:11;;;;;;;12.73;10.38;;;;;;;-1.68;100.00;101196.06;5055059;28;20021;-35
2023/12/02 05:38:36;;;;;;;12.80;10.13;;;;;;;-1.78;100.00;101217.28;5054778;28;20082;-35
2023/12/02 05:41:03;;;;;;;11.93;10.10;;;;;;;-1.75;100.00;101224.13;5054812;28;20049;-35
2023/12/02 05:43:29;;;;;;;13.13;10.13;;;;;;;-1.91;100.00;101224.69;5054085;28;20040;-35
2023/12/02 05:45:54;;;;;;;14.07;11.10;;;;;;;-1.92;100.00;101229.16;5055029;28;20029;-34
2023/12/02 05:48:20;;;;;;;14.77;11.80;;;;;;;-2.10;100.00;101233.47;5054053;28;20025;-35
2023/12/02 05:50:45;;;;;;;12.57;9.97;;;;;;;-1.88;100.00;101230.56;5054654;28;20108;-35
2023/12/02 05:53:11;;;;;;;14.63;10.97;;;;;;;-1.95;100.00;101224.16;5054250;28;20109;-35
2023/12/02 05:55:36;;;;;;;13.07;10.05;;;;;;;-1.76;100.00;101230.38;5053924;28;20396;-34
2023/12/02 05:58:02;;;;;;;13.67;10.60;;;;;;;-1.79;100.00;101214.78;5054870;28;20041;-35
2023/12/02 06:00:27;;;;;;;14.30;10.17;;;;;;;-1.69;100.00;101212.94;5054682;28;20334;-35
2023/12/02 06:02:53;;;;;;;14.47;10.47;;;;;;;-1.67;100.00;101205.69;5053891;28;20072;-35
2023/12/02 06:05:18;;;;;;;16.40;11.57;;;;;;;-1.73;100.00;101224.81;5053804;28;20035;-35
2023/12/02 06:07:43;;;;;;;13.97;11.07;;;;;;;-1.64;100.00;101229.28;5053982;28;20021;-35
2023/12/02 06:10:09;;;;;;;15.87;11.60;;;;;;;-1.74;100.00;101231.09;5053815;28;20093;-35
2023/12/02 06:12:34;;;;;;;14.33;11.50;;;;;;;-1.74;100.00;101231.09;5054010;28;20521;-35
2023/12/02 06:14:59;;;;;;;16.27;11.67;;;;;;;-1.82;100.00;101232.63;5053953;28;20500;-35
2023/12/02 06:17:25;;;;;;;16.03;12.83;;;;;;;-1.76;100.00;101239.19;5053623;28;20033;-35
2023/12/02 06:19:50;;;;;;;15.13;12.13;;;;;;;-1.80;100.00;101234.31;5053895;28;20050;-35
2023/12/02 06:22:16;;;;;;;14.75;11.32;;;;;;;-1.71;100.00;101233.47;5054349;28;20029;-35
2023/12/02 06:24:41;;;;;;;15.05;12.15;;;;;;;-1.71;100.00;101238.75;5053949;28;20035;-35
2023/12/02 06:27:07;;;;;;;13.30;10.87;;;;;;;-1.68;100.00;101246.44;5054720;28;20415;-35
2023/12/02 06:29:32;;;;;;;14.70;11.00;;;;;;;-1.64;100.00;101242.53;5053696;28;20051;-35
2023/12/02 06:31:57;;;;;;;17.17;11.97;;;;;;;-1.65;100.00;101246.16;5054160;28;20102;-35
2023/12/02 06:34:23;;;;;;;16.87;12.07;;;;;;;-1.77;100.00;101248.13;5053520;28;20036;-35
2023/12/02 06:36:48;;;;;;;15.67;11.80;;;;;;;-1.85;100.00;101243.53;5053796;28;20377;-35
2023/12/02 06:39:14;;;;;;;18.00;12.67;;;;;;;-1.83;100.00;101254.00;5053594;28;20040;-35
2023/12/02 06:41:41;;;;;;;15.65;11.55;;;;;;;-1.72;100.00;101253.84;5054092;28;20540;-35
2023/12/02 06:44:10;;;;;;;14.50;11.30;;;;;;;-1.83;100.00;101254.81;5053160;28;20033;-35
2023/12/02 06:46:36;;;;;;;15.15;11.63;;;;;;;-1.87;100.00;101253.44;5053704;28;20390;-35
2023/12/02 06:49:01;;;;;;;15.25;11.68;;;;;;;-1.82;100.00;101253.00;5053085;28;20029;-35
2023/12/02 06:51:29;;;;;;;15.17;11.63;;;;;;;-1.82;100.00;101267.09;5053419;28;20043;-35
2023/12/02 06:53:58;;;;;;;14.45;11.40;;;;;;;-1.88;100.00;101261.53;5053018;28;20045;-35
2023/12/02 06:56:25;;;;;;;15.93;11.82;;;;;;;-1.84;100.00;101271.72;5052771;28;20053;-35
2023/12/02 06:58:51;;;;;;;13.88;10.93;;;;;;;-1.83;100.00;101277.84;5054121;28;20033;-35
2023/12/02 07:01:27;;;;;;;15.30;11.98;;;;;;;-1.77;100.00;101281.75;5053609;28;20068;-35
2023/12/02 07:03:54;;;;;;;12.60;9.47;;;;;;;-1.67;100.00;101283.41;5053279;28;20056;-35
2023/12/02 07:06:20;;;;;;;14.15;11.60;;;;;;;-1.75;100.00;101287.78;5053255;28;20033;-35
2023/12/02 07:08:46;;;;;;;15.85;11.88;;;;;;;-1.85;100.00;101275.34;5053680;28;20071;-35
2023/12/02 07:11:11;;;;;;;14.55;11.63;;;;;;;-2.01;100.00;101263.59;5054000;28;20454;-35
2023/12/02 07:13:37;;;;;;;14.60;11.43;;;;;;;-1.90;100.00;101290.00;5053197;28;20032;-35
2023/12/02 07:16:03;;;;;;;16.33;11.95;;;;;;;-1.86;100.00;101302.81;5052897;28;20024;-35
2023/12/02 07:18:28;;;;;;;17.60;13.95;;;;;;;-1.93;100.00;101299.06;5055398;28;20071;-35
2023/12/02 07:20:53;;;;;;;16.20;12.37;;;;;;;-1.90;100.00;101300.59;5058011;28;20060;-34
2023/12/02 07:23:19;;;;;;;18.17;13.90;;;;;;;-1.88;100.00;101315.38;5057310;28;20429;-35
2023/12/02 07:25:44;;;;;;;18.97;14.67;;;;;;;-1.92;100.00;101313.97;5057099;28;20071;-35
2023/12/02 07:28:10;;;;;;;18.73;14.33;;;;;;;-1.84;100.00;101316.78;5057046;28;20032;-35
2023/12/02 07:30:35;;;;;;;21.47;15.63;;;;;;;-1.86;100.00;101310.75;5057135;28;20051;-35
2023/12/02 07:33:01;;;;;;;19.38;15.10;;;;;;;-1.84;100.00;101292.94;5056947;28;20021;-35
2023/12/02 07:35:27;;;;;;;19.38;15.13;;;;;;;-1.87;100.00;101302.97;5057141;28;20021;-35
2023/12/02 07:37:52;;;;;;;25.90;20.13;;;;;;;-1.84;100.00;101314.13;5056736;28;20028;-35
2023/12/02 07:40:17;;;;;;;23.40;17.80;;;;;;;-1.84;100.00;101326.56;5056678;28;20032;-35
2023/12/02 07:42:43;;;;;;;19.60;15.30;;;;;;;-1.85;100.00;101325.72;5057106;28;20052;-35
2023/12/02 07:45:08;;;;;;;20.87;15.93;;;;;;;-1.89;100.00;101334.91;5056692;28;20463;-35
2023/12/02 07:47:34;;;;;;;17.98;13.68;;;;;;;-1.94;100.00;101323.91;5056923;28;20028;-35
2023/12/02 07:49:59;;;;;;;17.83;13.30;;;;;;;-1.88;100.00;101327.81;5057079;28;20505;-35
2023/12/02 07:52:24;;;;;;;16.60;12.47;;;;;;;-1.85;100.00;101325.72;5056589;28;20079;-35
2023/12/02 07:54:50;;;;;;;17.23;13.53;;;;;;;-1.79;100.00;101328.78;5056548;28;20029;-35
2023/12/02 07:57:15;;;;;;;15.13;11.47;;;;;;;-1.88;100.00;101314.53;5057237;28;20049;-35
2023/12/02 07:59:40;;;;;;;16.87;13.27;;;;;;;-1.97;100.00;101331.28;5056982;28;20063;-35
2023/12/02 08:02:06;;;;;;;16.67;13.67;;;;;;;-1.95;100.00;101342.56;5056937;28;20415;-35
2023/12/02 08:04:31;;;;;;;18.30;14.75;;;;;;;-1.99;100.00;101349.97;5055983;28;20032;-35
2023/12/02 08:06:57;;;;;;;21.60;16.60;;;;;;;-1.97;100.00;101348.00;5056594;28;20049;-35
2023/12/02 08:09:22;;;;;;;17.50;14.13;;;;;;;-1.92;100.00;101345.78;5055954;28;20385;-35
2023/12/02 08:11:48;;;;;;;19.43;14.00;;;;;;;-1.94;100.00;101352.22;5056005;28;20055;-35
2023/12/02 08:14:14;;;;;;;;;;;;;;;-1.83;100.00;101360.88;5057038;28;20029;-35
2023/12/02 08:16:39;;;;;;;18.52;13.75;;;;;;;-1.85;100.00;101362.84;5056099;28;19912;-35
2023/12/02 08:19:05;;;;;;;15.40;12.63;;;;;;;-1.77;100.00;101374.56;5056409;28;20025;-35
2023/12/02 08:21:31;;;;;;;16.63;12.38;;;;;;;-1.66;100.00;101367.31;5055923;28;20093;-35
2023/12/02 08:23:56;;;;;;;17.45;13.40;;;;;;;-1.67;100.00;101362.13;5055742;28;20059;-35
2023/12/02 08:26:21;;;;;;;19.30;13.97;;;;;;;-1.64;100.00;101375.13;5056250;28;20454;-35
2023/12/02 08:28:48;;;;;;;16.27;12.87;;;;;;;-1.59;100.00;101373.72;5055483;28;20512;-35
2023/12/02 08:31:14;;;;;;;16.38;12.05;;;;;;;-1.58;100.00;101385.19;5056378;28;20032;-35
2023/12/02 08:33:40;;;;;;;16.40;12.68;;;;;;;-1.53;100.00;101376.81;5055845;28;20029;-35
2023/12/02 08:36:06;;;;;;;18.37;12.63;;;;;;;-1.39;100.00;101389.66;5055677;28;20033;-35
2023/12/02 08:38:31;;;;;;;18.30;13.70;;;;;;;-1.45;100.00;101395.53;5055574;28;20311;-35
2023/12/02 08:40:57;;;;;;;18.47;14.57;;;;;;;-1.37;100.00;101393.81;5056470;28;20079;-35
2023/12/02 08:43:22;;;;;;;16.85;12.95;;;;;;;-1.41;100.00;101379.19;5055523;28;20028;-35
2023/12/02 08:45:47;;;;;;;18.47;14.80;;;;;;;-1.38;100.00;101392.16;5055611;28;20028;-35
2023/12/02 08:48:13;;;;;;;19.83;13.77;;;;;;;-1.30;100.00;101394.97;5055537;28;20071;-35
2023/12/02 08:50:38;;;;;;;19.03;14.33;;;;;;;-1.24;100.00;101403.34;5055594;28;20035;-35
2023/12/02 08:53:03;;;;;;;22.53;16.93;;;;;;;-1.19;100.00;101406.41;5055762;28;20025;-35
2023/12/02 08:55:29;;;;;;;19.33;14.47;;;;;;;-1.18;100.00;101400.09;5056311;28;20032;-35
2023/12/02 08:57:54;;;;;;;20.00;14.57;;;;;;;-1.19;100.00;101401.09;5055827;28;20053;-35
2023/12/02 09:00:19;;;;;;;19.73;14.10;;;;;;;-1.12;100.00;101404.88;5055604;28;20045;-35
2023/12/02 09:02:45;;;;;;;20.85;15.13;;;;;;;-1.06;100.00;101399.81;5055796;28;20446;-35
2023/12/02 09:05:10;;;;;;;21.30;14.63;;;;;;;-1.22;100.00;101369.53;5055235;28;20473;-35
2023/12/02 09:07:36;;;;;;;21.77;14.87;;;;;;;-1.04;100.00;101383.75;5055233;28;20033;-35
2023/12/02 09:10:03;;;;;;;18.17;14.10;;;;;;;-0.87;100.00;101390.16;5055361;28;20025;-35
2023/12/02 09:12:29;;;;;;;18.33;14.23;;;;;;;-0.83;100.00;101388.88;5055542;28;20029;-35
2023/12/02 09:15:29;;;;;;;17.52;13.48;;;;;;;-0.75;100.00;101401.44;5055022;28;20022;-35
2023/12/02 09:18:09;;;;;;;16.50;13.32;;;;;;;-0.74;100.00;101406.59;5054341;28;20036;-35
2023/12/02 09:20:37;;;;;;;19.92;13.95;;;;;;;-0.73;100.00;101418.06;5053627;28;20024;-35
2023/12/02 09:23:03;;;;;;;18.77;14.38;;;;;;;-0.75;100.00;101417.38;5054610;28;20559;-35
2023/12/02 09:25:32;;;;;;;18.73;15.03;;;;;;;-0.82;100.00;101407.34;5054840;28;20028;-35
2023/12/02 09:28:06;;;;;;;19.35;14.77;;;;;;;-0.76;100.00;101408.56;5054800;28;20109;-35
2023/12/02 09:30:37;;;;;;;17.65;13.25;;;;;;;-0.63;100.00;101418.91;5054746;28;20116;-35
2023/12/02 09:33:05;;;;;;;18.50;13.45;;;;;;;-0.63;100.00;101418.91;5054982;28;20048;-35
2023/12/02 09:35:31;;;;;;;21.08;15.43;;;;;;;-0.59;100.00;101418.44;5054494;28;20127;-35
2023/12/02 09:37:58;;;;;;;19.73;15.65;;;;;;;-0.57;100.00;101421.81;5054213;28;20115;-35
2023/12/02 09:40:54;;;;;;;19.67;15.38;;;;;;;-0.46;100.00;101423.44;5053753;28;20036;-35
2023/12/02 09:43:39;;;;;;;21.20;15.15;;;;;;;-0.49;100.00;101421.06;5055261;28;20067;-35
2023/12/02 09:46:26;;;;;;;21.20;15.48;;;;;;;-0.51;100.00;101404.44;5054740;28;20078;-35
2023/12/02 09:49:00;;;;;;;22.30;16.30;;;;;;;-0.30;100.00;101425.47;5054377;28;20025;-36
2023/12/02 09:51:46;;;;;;;22.05;17.30;;;;;;;-0.38;100.00;101412.09;5054519;28;20115;-36
2023/12/02 09:54:14;;;;;;;21.08;16.17;;;;;;;-0.31;100.00;101426.47;5054198;28;20082;-36
2023/12/02 09:56:46;;;;;;;19.38;15.30;;;;;;;-0.27;100.00;101431.34;5053758;28;20105;-36
2023/12/02 09:59:33;;;;;;;21.23;16.00;;;;;;;-0.32;100.00;101412.34;5054141;28;20021;-34
2023/12/02 10:02:38;;;;;;;18.30;14.30;;;;;;;-0.14;100.00;101431.03;5054945;28;20471;-34
2023/12/02 10:05:11;;;;;;;21.17;15.48;;;;;;;-0.07;100.00;101444.56;5053823;28;20025;-35
2023/12/02 10:07:52;;;;;;;20.38;15.25;;;;;;;-0.06;100.00;101441.75;5054091;28;20032;-34
2023/12/02 10:10:22;;;;;;;18.50;14.30;;;;;;;-0.13;100.00;101413.25;5053987;28;20028;-34
2023/12/02 10:13:15;;;;;;;19.40;14.20;;;;;;;0.04;100.00;101439.03;5054747;28;20025;-35
2023/12/02 10:15:42;;;;;;;18.88;14.32;;;;;;;-0.06;100.00;101441.75;5053560;28;20535;-34
2023/12/02 10:18:17;;;;;;;18.58;14.48;;;;;;;-0.18;100.00;101426.16;5054400;28;20029;-35
2023/12/02 10:20:44;;;;;;;18.95;15.38;;;;;;;-0.11;100.00;101448.50;5054113;28;20049;-35
2023/12/02 10:23:32;;;;;;;20.33;15.70;;;;;;;0.02;100.00;101441.03;5054572;28;20428;-35
2023/12/02 10:26:12;;;;;;;19.05;14.52;;;;;;;0.08;100.00;101445.75;5053683;28;20051;-35
2023/12/02 10:28:54;;;;;;;19.80;14.98;;;;;;;0.15;100.00;101441.53;5053974;28;20047;-35
2023/12/02 10:31:28;;;;;;;20.77;15.60;;;;;;;0.16;100.00;101440.53;5053968;28;20454;-35
2023/12/02 10:34:24;;;;;;;20.23;14.93;;;;;;;0.21;100.00;101446.25;5054122;28;20424;-35
2023/12/02 10:36:53;;;;;;;18.77;14.57;;;;;;;0.15;100.00;101433.53;5053485;28;20017;-35
2023/12/02 10:39:46;;;;;;;19.15;14.73;;;;;;;0.23;100.00;101438.09;5053475;28;20431;-35
2023/12/02 10:42:29;;;;;;;18.83;14.85;;;;;;;0.18;100.00;101440.38;5054506;28;20056;-35
2023/12/02 10:45:05;;;;;;;19.98;15.05;;;;;;;0.14;100.00;101445.13;5053729;28;20033;-35
2023/12/02 10:47:31;;;;;;;17.80;13.97;;;;;;;0.12;100.00;101441.81;5053695;28;20078;-35
2023/12/02 10:49:59;;;;;;;19.70;14.75;;;;;;;0.11;100.00;101442.78;5053902;28;20358;-35
2023/12/02 10:52:28;;;;;;;19.23;14.95;;;;;;;0.09;100.00;101431.44;5053288;28;20029;-35
2023/12/02 10:55:01;;;;;;;19.27;15.18;;;;;;;0.16;100.00;101437.88;5053579;28;20024;-35
2023/12/02 10:57:27;;;;;;;18.83;14.05;;;;;;;0.25;100.00;101442.31;5054217;28;20461;-35
2023/12/02 11:00:07;;;;;;;18.30;14.70;;;;;;;0.32;100.00;101439.88;5053306;28;20411;-35
2023/12/02 11:02:41;;;;;;;19.33;15.15;;;;;;;0.29;100.00;101434.00;5053762;28;20110;-35